Time;durP1;ratioP1;P1;durP2;ratioP2;P2;SDS_P1;SDS_P2;PMS_P1;PMS_P2;Temp;Humidity;BMP_temperature;BMP_pressure;BME280_temperature;BME280_humidity;BME280_pressure;Samples;Min_cycle;Max_cycle;Signal;HPM_P1;HPM_P2
2022/07/13 00:01:25;;;;;;;3.83;3.27;;;20.20;99.90;;;;;;5054827;28;20424;-41
2022/07/13 00:03:53;;;;;;;3.30;2.40;;;20.20;99.90;;;;;;5055396;28;20459;-50
2022/07/13 00:06:21;;;;;;;3.30;2.10;;;20.20;99.90;;;;;;5054759;28;20495;-49
2022/07/13 00:08:49;;;;;;;3.80;2.60;;;20.10;99.90;;;;;;5055200;28;20440;-57
2022/07/13 00:11:16;;;;;;;3.57;2.30;;;20.00;99.90;;;;;;5055618;28;20538;-50
2022/07/13 00:13:43;;;;;;;2.77;2.23;;;20.10;99.90;;;;;;5054602;28;20460;-54
2022/07/13 00:16:09;;;;;;;2.50;2.10;;;20.10;99.90;;;;;;5054397;28;20502;-52
2022/07/13 00:18:36;;;;;;;4.27;2.60;;;20.10;99.90;;;;;;5054697;28;20438;-56
2022/07/13 00:21:03;;;;;;;3.97;2.20;;;20.10;99.90;;;;;;5054425;28;20461;-55
2022/07/13 00:23:30;;;;;;;2.97;1.97;;;20.10;99.90;;;;;;5055474;28;20471;-47
2022/07/13 00:25:58;;;;;;;5.73;2.47;;;20.00;99.90;;;;;;5053019;28;20511;-49
2022/07/13 00:28:25;;;;;;;2.47;1.90;;;20.10;99.90;;;;;;5058759;28;20428;-47
2022/07/13 00:30:52;;;;;;;3.37;2.23;;;20.10;99.90;;;;;;5059500;28;20444;-52
2022/07/13 00:33:19;;;;;;;4.70;2.30;;;20.10;99.90;;;;;;5058637;28;20432;-51
2022/07/13 00:35:46;;;;;;;26.87;2.93;;;20.10;99.90;;;;;;5057288;28;20486;-52
2022/07/13 00:38:13;;;;;;;5.03;2.40;;;20.00;99.90;;;;;;5057878;28;20494;-51
2022/07/13 00:40:40;;;;;;;3.70;2.13;;;20.10;99.90;;;;;;5059305;28;20508;-55
2022/07/13 00:43:08;;;;;;;4.07;2.60;;;20.00;99.90;;;;;;5059272;28;20472;-54
2022/07/13 00:45:35;;;;;;;4.10;2.57;;;20.00;99.90;;;;;;5046650;28;20476;-55
2022/07/13 00:48:02;;;;;;;4.53;3.20;;;20.00;99.90;;;;;;5059003;28;20459;-56
2022/07/13 00:50:29;;;;;;;2.97;2.30;;;20.10;99.90;;;;;;5058270;28;20515;-63
2022/07/13 00:52:56;;;;;;;2.20;2.00;;;20.10;99.90;;;;;;5059168;28;20415;-58
2022/07/13 00:55:23;;;;;;;3.50;2.00;;;20.10;99.90;;;;;;5058407;28;20515;-62
2022/07/13 00:57:54;;;;;;;2.33;1.83;;;20.20;99.90;;;;;;5059036;28;20448;-53
2022/07/13 01:00:22;;;;;;;2.90;1.90;;;20.20;99.90;;;;;;5056964;28;20928;-52
2022/07/13 01:02:49;;;;;;;2.47;1.90;;;20.20;99.90;;;;;;5058654;28;20417;-53
2022/07/13 01:05:17;;;;;;;2.33;2.13;;;20.20;99.90;;;;;;5058737;28;20448;-46
2022/07/13 01:07:45;;;;;;;8.37;2.80;;;20.20;99.90;;;;;;5058341;28;20746;-52
2022/07/13 01:10:13;;;;;;;6.83;2.00;;;20.20;99.90;;;;;;5057964;28;20463;-46
2022/07/13 01:12:41;;;;;;;3.23;1.70;;;20.10;99.90;;;;;;5057939;28;20512;-47
2022/07/13 01:15:09;;;;;;;2.67;2.43;;;20.10;99.90;;;;;;5057909;28;20467;-53
2022/07/13 01:17:39;;;;;;;1.93;1.73;;;20.10;99.90;;;;;;5057863;28;20474;-52
2022/07/13 01:20:08;;;;;;;2.10;1.60;;;20.10;99.90;;;;;;5058077;28;20452;-51
2022/07/13 01:22:39;;;;;;;2.87;1.83;;;20.20;99.90;;;;;;5136029;22;20487;-49
2022/07/13 01:25:08;;;;;;;2.73;2.00;;;20.20;99.90;;;;;;5077276;28;20422;-50
2022/07/13 01:27:37;;;;;;;2.80;2.07;;;20.20;99.90;;;;;;5077333;28;20462;-52
2022/07/13 01:30:06;;;;;;;1.87;1.57;;;20.20;99.90;;;;;;5076608;28;20474;-50
2022/07/13 01:32:46;;;;;;;4.80;2.40;;;20.20;99.90;;;;;;5075854;28;20478;-56
2022/07/13 01:35:14;;;;;;;2.40;1.93;;;20.20;99.90;;;;;;5069033;28;20518;-50
2022/07/13 01:37:41;;;;;;;4.17;1.93;;;20.20;99.90;;;;;;5076298;28;20447;-50
2022/07/13 01:40:10;;;;;;;1.93;1.73;;;20.10;99.90;;;;;;5076066;28;20446;-55
2022/07/13 01:42:45;;;;;;;3.43;2.40;;;20.10;99.90;;;;;;5077162;28;20474;-44
2022/07/13 01:45:13;;;;;;;2.30;2.10;;;20.10;99.90;;;;;;5077000;28;20453;-49
2022/07/13 01:47:40;;;;;;;2.83;1.57;;;20.10;99.90;;;;;;5076575;28;20471;-48
2022/07/13 01:50:08;;;;;;;3.47;2.20;;;20.00;99.90;;;;;;5077052;28;20454;-47
2022/07/13 01:52:36;;;;;;;3.33;2.23;;;20.00;99.90;;;;;;5076017;28;20524;-47
2022/07/13 01:55:03;;;;;;;2.10;1.63;;;20.00;99.90;;;;;;5076610;28;20509;-50
2022/07/13 01:57:31;;;;;;;3.30;2.37;;;20.00;99.90;;;;;;5076288;28;20543;-50
2022/07/13 01:59:59;;;;;;;3.27;2.10;;;19.90;99.90;;;;;;5076212;28;20457;-52
2022/07/13 02:02:26;;;;;;;3.10;2.00;;;19.90;99.90;;;;;;5064665;28;20539;-51
2022/07/13 02:04:54;;;;;;;2.70;1.77;;;19.90;99.90;;;;;;5076406;28;20435;-49
2022/07/13 02:07:21;;;;;;;4.97;1.87;;;19.90;99.90;;;;;;5076174;28;20486;-49
2022/07/13 02:09:51;;;;;;;2.10;1.90;;;19.80;99.90;;;;;;5077086;28;20449;-47
2022/07/13 02:12:18;;;;;;;2.57;2.10;;;19.80;99.90;;;;;;5066653;28;20473;-54
2022/07/13 02:14:47;;;;;;;2.47;2.10;;;19.80;99.90;;;;;;5076106;28;20478;-47
2022/07/13 02:17:15;;;;;;;3.20;1.83;;;19.80;99.90;;;;;;5075683;28;21009;-49
2022/07/13 02:19:42;;;;;;;2.77;1.77;;;19.80;99.90;;;;;;5076069;28;20427;-50
2022/07/13 02:22:09;;;;;;;3.33;2.13;;;19.90;99.90;;;;;;5075876;28;20558;-51
2022/07/13 02:24:36;;;;;;;2.90;1.90;;;19.90;99.90;;;;;;5075697;28;20507;-53
2022/07/13 02:27:03;;;;;;;2.17;1.67;;;19.90;99.90;;;;;;5075749;28;20543;-49
2022/07/13 02:29:30;;;;;;;3.30;1.67;;;19.90;99.90;;;;;;5076275;28;20512;-53
2022/07/13 02:31:58;;;;;;;2.77;1.87;;;19.90;99.90;;;;;;5075788;28;20438;-49
2022/07/13 02:34:27;;;;;;;5.53;1.90;;;19.90;99.90;;;;;;5075539;28;20452;-50
2022/07/13 02:36:55;;;;;;;3.53;2.07;;;19.90;99.90;;;;;;5075719;28;20480;-52
2022/07/13 02:39:22;;;;;;;5.30;2.23;;;19.80;99.90;;;;;;5076090;28;20423;-44
2022/07/13 02:41:50;;;;;;;4.53;1.97;;;19.80;99.90;;;;;;5075320;28;20472;-47
2022/07/13 02:44:17;;;;;;;2.87;2.27;;;19.80;99.90;;;;;;5075528;28;20446;-49
2022/07/13 02:46:44;;;;;;;2.50;1.90;;;19.80;99.90;;;;;;5075661;28;20439;-50
2022/07/13 02:49:12;;;;;;;3.50;2.00;;;19.80;99.90;;;;;;5075525;28;20453;-51
2022/07/13 02:51:45;;;;;;;3.33;2.00;;;19.70;99.90;;;;;;5075446;28;20511;-52
2022/07/13 02:54:12;;;;;;;1.80;1.50;;;19.70;99.90;;;;;;5075324;28;20865;-47
2022/07/13 02:56:39;;;;;;;2.33;2.00;;;19.70;99.90;;;;;;5075309;28;20460;-49
2022/07/13 02:59:05;;;;;;;2.50;2.03;;;19.70;99.90;;;;;;5075944;28;20487;-54
2022/07/13 03:01:32;;;;;;;2.10;1.63;;;19.70;99.90;;;;;;5075461;28;20451;-50
2022/07/13 03:04:00;;;;;;;2.23;1.90;;;19.70;99.90;;;;;;5075807;28;20471;-57
2022/07/13 03:06:28;;;;;;;2.00;1.70;;;19.70;99.90;;;;;;5075505;28;20450;-49
2022/07/13 03:08:55;;;;;;;5.10;2.53;;;19.70;99.90;;;;;;5073732;28;20475;-55
2022/07/13 03:11:22;;;;;;;2.20;1.80;;;19.70;99.90;;;;;;5069665;28;20474;-46
2022/07/13 03:13:49;;;;;;;2.90;1.93;;;19.70;99.90;;;;;;5072823;28;20471;-57
2022/07/13 03:16:15;;;;;;;2.27;1.80;;;19.70;99.90;;;;;;5072730;28;20488;-48
2022/07/13 03:18:42;;;;;;;2.30;2.10;;;19.70;99.90;;;;;;5055596;28;20492;-46
2022/07/13 03:21:09;;;;;;;2.47;1.70;;;19.70;99.90;;;;;;5056259;28;20424;-44
2022/07/13 03:23:38;;;;;;;1.90;1.60;;;19.70;99.90;;;;;;5056396;28;20456;-58
2022/07/13 03:26:05;;;;;;;3.10;2.07;;;19.80;99.90;;;;;;5055591;28;20463;-56
2022/07/13 03:28:39;;;;;;;2.50;2.27;;;19.80;99.90;;;;;;5055987;28;20479;-57
2022/07/13 03:31:06;;;;;;;2.70;1.77;;;19.80;99.90;;;;;;5056735;28;20440;-55
2022/07/13 03:33:33;;;;;;;3.57;2.13;;;19.80;99.90;;;;;;5056596;28;20472;-57
2022/07/13 03:36:02;;;;;;;2.17;1.97;;;19.80;99.90;;;;;;5056703;28;20483;-52
2022/07/13 03:38:29;;;;;;;8.10;2.37;;;19.90;99.90;;;;;;5056750;28;20523;-57
2022/07/13 03:41:06;;;;;;;3.63;1.90;;;19.90;99.90;;;;;;5056635;28;20452;-50
2022/07/13 03:43:33;;;;;;;3.40;2.07;;;19.90;99.90;;;;;;5055337;28;20875;-53
2022/07/13 03:45:59;;;;;;;2.80;1.93;;;19.90;99.90;;;;;;5055774;28;20475;-51
2022/07/13 03:48:26;;;;;;;2.50;1.90;;;19.90;99.90;;;;;;5054375;28;20471;-50
2022/07/13 03:50:53;;;;;;;2.23;1.70;;;19.90;99.90;;;;;;5054786;28;20467;-47
2022/07/13 03:53:23;;;;;;;2.03;1.73;;;19.80;99.90;;;;;;5054682;28;20452;-49
2022/07/13 03:55:50;;;;;;;3.70;2.00;;;19.90;99.90;;;;;;5055401;28;20499;-56
2022/07/13 03:58:20;;;;;;;4.00;1.93;;;19.80;99.90;;;;;;5055256;28;20503;-48
2022/07/13 04:00:47;;;;;;;2.10;1.90;;;19.80;99.90;;;;;;5055136;28;20440;-50
2022/07/13 04:03:14;;;;;;;3.80;1.93;;;19.80;99.90;;;;;;5058740;28;20520;-45
2022/07/13 04:05:41;;;;;;;3.63;2.40;;;19.80;99.90;;;;;;5058977;28;20420;-51
2022/07/13 04:08:08;;;;;;;2.43;2.20;;;19.80;99.90;;;;;;5059013;28;20439;-49
2022/07/13 04:10:34;;;;;;;3.53;2.47;;;19.80;99.90;;;;;;5058885;28;20483;-54
2022/07/13 04:13:01;;;;;;;3.73;2.30;;;19.80;99.90;;;;;;5059286;28;20428;-44
2022/07/13 04:15:32;;;;;;;3.03;2.30;;;19.80;99.90;;;;;;5058619;28;20472;-52
2022/07/13 04:17:59;;;;;;;8.43;2.00;;;19.80;99.90;;;;;;5058796;28;20437;-52
2022/07/13 04:20:27;;;;;;;2.90;2.50;;;19.80;99.90;;;;;;5058721;28;20497;-49
2022/07/13 04:22:54;;;;;;;4.40;2.20;;;19.80;99.90;;;;;;5058629;28;20471;-50
2022/07/13 04:25:20;;;;;;;3.03;2.50;;;19.80;99.90;;;;;;5058242;28;20504;-54
2022/07/13 04:27:47;;;;;;;2.60;1.87;;;19.80;99.90;;;;;;5058485;28;20454;-48
2022/07/13 04:30:14;;;;;;;5.33;2.53;;;19.90;99.90;;;;;;5058215;28;20471;-49
2022/07/13 04:32:42;;;;;;;3.97;2.27;;;19.90;99.90;;;;;;5058387;28;20454;-50
2022/07/13 04:35:09;;;;;;;3.83;2.30;;;19.90;99.90;;;;;;5058528;28;20456;-54
2022/07/13 04:37:36;;;;;;;2.87;1.80;;;19.90;99.90;;;;;;5057989;28;20507;-56
2022/07/13 04:40:04;;;;;;;2.33;2.00;;;19.90;99.90;;;;;;5058338;28;20470;-49
2022/07/13 04:42:31;;;;;;;4.20;2.33;;;19.90;99.90;;;;;;5058071;28;20444;-49
2022/07/13 04:44:58;;;;;;;2.10;1.87;;;19.90;99.90;;;;;;5057870;28;20948;-42
2022/07/13 04:47:24;;;;;;;5.83;2.23;;;19.90;99.90;;;;;;5057912;28;20511;-48
2022/07/13 04:49:53;;;;;;;2.37;1.97;;;19.90;99.90;;;;;;5057715;28;20432;-52
2022/07/13 04:52:19;;;;;;;2.27;2.07;;;19.90;99.90;;;;;;5058075;28;20519;-47
2022/07/13 04:54:46;;;;;;;2.50;2.30;;;20.00;99.90;;;;;;5057932;28;20464;-54
2022/07/13 04:57:13;;;;;;;3.80;2.47;;;20.00;99.90;;;;;;5057792;28;20528;-44
2022/07/13 04:59:42;;;;;;;5.50;2.63;;;20.10;99.90;;;;;;5057844;28;20510;-51
2022/07/13 05:02:09;;;;;;;2.60;2.10;;;20.10;99.90;;;;;;5057985;28;20475;-47
2022/07/13 05:04:36;;;;;;;4.53;2.70;;;20.20;99.90;;;;;;5057118;28;20511;-49
2022/07/13 05:07:04;;;;;;;3.10;1.93;;;20.30;99.90;;;;;;5057707;28;20448;-48
2022/07/13 05:09:31;;;;;;;2.30;2.10;;;20.30;99.90;;;;;;5057217;28;20443;-47
2022/07/13 05:11:58;;;;;;;2.97;2.60;;;20.40;99.90;;;;;;5057824;28;20409;-43
2022/07/13 05:14:25;;;;;;;3.70;2.50;;;20.50;99.90;;;;;;5057497;28;20479;-51
2022/07/13 05:16:52;;;;;;;2.10;1.90;;;20.60;99.90;;;;;;5057420;28;20468;-47
2022/07/13 05:19:19;;;;;;;3.77;2.73;;;20.60;99.90;;;;;;5057184;28;20432;-49
2022/07/13 05:21:46;;;;;;;2.77;1.87;;;20.60;99.90;;;;;;5057780;28;20516;-48
2022/07/13 05:24:14;;;;;;;2.33;2.13;;;20.70;99.90;;;;;;5057468;28;20411;-49
2022/07/13 05:26:41;;;;;;;2.23;2.03;;;20.80;99.90;;;;;;5057250;28;20450;-47
2022/07/13 05:29:07;;;;;;;7.37;2.53;;;20.80;99.90;;;;;;5049333;28;20511;-50
2022/07/13 05:31:35;;;;;;;3.10;2.40;;;20.90;99.90;;;;;;5053219;28;20534;-49
2022/07/13 05:34:02;;;;;;;3.00;2.30;;;21.00;99.90;;;;;;5052909;28;20459;-56
2022/07/13 05:36:29;;;;;;;3.43;1.97;;;21.10;99.90;;;;;;5050913;28;20506;-51
2022/07/13 05:38:56;;;;;;;3.13;2.77;;;21.10;99.90;;;;;;5056868;28;20448;-52
2022/07/13 05:41:24;;;;;;;5.43;2.30;;;21.20;99.90;;;;;;5053307;28;20468;-45
2022/07/13 05:43:51;;;;;;;2.17;1.80;;;21.30;99.90;;;;;;5054854;28;20466;-45
2022/07/13 05:46:20;;;;;;;2.27;2.07;;;21.30;99.90;;;;;;5056244;28;20496;-44
2022/07/13 05:48:47;;;;;;;3.90;1.63;;;21.40;99.90;;;;;;5056805;28;20448;-55
2022/07/13 05:51:14;;;;;;;2.30;2.10;;;21.40;99.90;;;;;;5055241;28;20560;-51
2022/07/13 05:53:41;;;;;;;5.90;1.97;;;21.50;99.90;;;;;;5056751;28;20448;-47
2022/07/13 05:56:08;;;;;;;3.03;2.00;;;21.60;99.90;;;;;;5057234;28;20531;-51
2022/07/13 05:58:36;;;;;;;2.70;2.50;;;21.70;99.90;;;;;;5056789;28;20437;-54
2022/07/13 06:01:03;;;;;;;2.70;2.10;;;21.70;99.90;;;;;;5056627;28;20508;-46
2022/07/13 06:03:30;;;;;;;2.90;2.57;;;21.70;99.90;;;;;;5049857;28;20425;-52
2022/07/13 06:05:57;;;;;;;5.53;2.80;;;21.80;99.90;;;;;;5050602;28;20465;-54
2022/07/13 06:08:23;;;;;;;2.13;1.80;;;21.80;99.90;;;;;;5055148;28;20573;-52
2022/07/13 06:10:52;;;;;;;4.40;2.30;;;21.90;99.90;;;;;;5053737;28;20472;-51
2022/07/13 06:13:19;;;;;;;2.90;2.33;;;22.00;99.90;;;;;;5049996;28;20424;-54
2022/07/13 06:15:47;;;;;;;2.00;1.77;;;21.90;99.90;;;;;;5050814;28;20432;-52
2022/07/13 06:18:17;;;;;;;2.70;1.90;;;22.00;99.90;;;;;;5052107;28;20460;-44
2022/07/13 06:20:43;;;;;;;5.13;2.97;;;22.00;99.90;;;;;;5054637;28;20486;-48
2022/07/13 06:23:10;;;;;;;5.60;2.50;;;22.10;99.90;;;;;;5055827;28;20464;-50
2022/07/13 06:25:37;;;;;;;4.03;2.97;;;22.20;99.90;;;;;;5055580;28;20488;-50
2022/07/13 06:28:05;;;;;;;3.73;3.00;;;22.30;99.90;;;;;;5045076;28;20468;-51
2022/07/13 06:30:31;;;;;;;2.60;2.03;;;22.40;99.90;;;;;;5055905;28;20492;-43
2022/07/13 06:33:00;;;;;;;3.03;2.17;;;22.50;99.90;;;;;;5054824;28;20489;-53
2022/07/13 06:35:27;;;;;;;1.80;1.53;;;22.50;99.90;;;;;;5055830;28;20939;-51
2022/07/13 06:37:53;;;;;;;1.93;1.73;;;22.60;99.90;;;;;;5056118;28;20502;-47
2022/07/13 06:40:20;;;;;;;3.30;2.13;;;22.60;99.90;;;;;;5055914;28;20440;-48
2022/07/13 06:42:47;;;;;;;3.93;2.03;;;22.70;99.90;;;;;;5053890;28;20478;-57
2022/07/13 06:45:15;;;;;;;2.50;1.83;;;22.80;99.90;;;;;;5051963;28;20472;-49
2022/07/13 06:47:42;;;;;;;3.10;1.57;;;22.90;99.90;;;;;;5053978;28;21048;-50
2022/07/13 06:50:11;;;;;;;1.93;1.63;;;23.00;99.90;;;;;;5054004;28;20448;-43
2022/07/13 06:52:40;;;;;;;1.80;1.57;;;23.20;99.90;;;;;;5053649;28;20464;-45
2022/07/13 06:55:09;;;;;;;2.13;1.50;;;23.20;99.90;;;;;;5042779;28;20455;-48
2022/07/13 06:57:36;;;;;;;2.50;1.80;;;23.30;99.90;;;;;;5055117;28;20492;-51
2022/07/13 07:00:04;;;;;;;3.30;2.17;;;23.40;99.90;;;;;;5055869;28;20408;-51
2022/07/13 07:02:31;;;;;;;2.60;2.17;;;23.50;99.90;;;;;;5055825;28;20528;-49
2022/07/13 07:04:58;;;;;;;3.50;2.37;;;23.60;99.90;;;;;;5055844;28;20491;-50
2022/07/13 07:07:26;;;;;;;2.53;2.00;;;23.70;99.90;;;;;;5055613;28;20491;-51
2022/07/13 07:09:53;;;;;;;2.53;2.33;;;23.80;99.90;;;;;;5055611;28;20474;-50
2022/07/13 07:12:20;;;;;;;2.20;2.00;;;23.90;99.90;;;;;;5055678;28;20439;-51
2022/07/13 07:14:47;;;;;;;2.37;2.17;;;24.00;99.90;;;;;;5055242;28;20501;-54
2022/07/13 07:17:16;;;;;;;2.77;2.10;;;24.00;99.90;;;;;;5055031;28;20472;-44
2022/07/13 07:19:44;;;;;;;3.07;2.40;;;24.00;99.90;;;;;;5045121;28;20451;-51
2022/07/13 07:22:13;;;;;;;6.97;3.20;;;24.00;99.90;;;;;;5055046;28;20524;-46
2022/07/13 07:24:41;;;;;;;3.23;2.10;;;24.10;99.90;;;;;;5055328;28;20471;-46
2022/07/13 07:27:10;;;;;;;2.70;2.07;;;24.20;99.90;;;;;;5055804;28;20417;-50
2022/07/13 07:29:37;;;;;;;2.50;2.07;;;24.20;99.90;;;;;;5054678;28;20483;-53
2022/07/13 07:32:05;;;;;;;2.40;2.17;;;24.40;99.90;;;;;;5054988;28;20507;-53
2022/07/13 07:34:32;;;;;;;4.47;2.53;;;24.50;99.90;;;;;;5055465;28;20448;-55
2022/07/13 07:36:59;;;;;;;2.40;2.20;;;24.70;99.90;;;;;;5056735;28;20543;-50
2022/07/13 07:39:26;;;;;;;4.43;2.20;;;24.80;99.90;;;;;;5059615;28;20436;-48
2022/07/13 07:41:54;;;;;;;5.73;2.00;;;25.00;99.90;;;;;;5059338;28;20482;-54
2022/07/13 07:44:21;;;;;;;2.50;2.00;;;25.10;99.90;;;;;;5059181;28;20460;-47
2022/07/13 07:46:48;;;;;;;2.57;2.20;;;25.40;99.90;;;;;;5059692;28;20500;-51
2022/07/13 07:49:15;;;;;;;2.17;1.93;;;25.60;99.90;;;;;;5059419;28;20472;-44
2022/07/13 07:51:44;;;;;;;2.97;2.00;;;25.80;99.90;;;;;;5058815;28;20454;-45
2022/07/13 07:54:11;;;;;;;3.93;2.00;;;25.90;99.90;;;;;;5058721;28;20476;-47
2022/07/13 07:56:37;;;;;;;2.67;2.47;;;25.90;99.90;;;;;;5059499;28;20467;-52
2022/07/13 07:59:06;;;;;;;2.30;1.83;;;26.00;99.90;;;;;;5059023;28;20474;-54
2022/07/13 08:01:32;;;;;;;4.90;2.17;;;26.00;99.90;;;;;;5059288;28;20447;-47
2022/07/13 08:03:59;;;;;;;2.00;1.80;;;26.00;99.90;;;;;;5058044;28;20479;-49
2022/07/13 08:06:28;;;;;;;2.10;1.80;;;26.30;99.90;;;;;;5058786;28;20499;-43
2022/07/13 08:08:57;;;;;;;2.80;1.90;;;26.70;99.90;;;;;;5058257;28;20535;-56
2022/07/13 08:11:24;;;;;;;2.83;1.87;;;27.20;99.90;;;;;;5058430;28;20464;-51
2022/07/13 08:13:52;;;;;;;2.27;2.07;;;27.60;99.90;;;;;;5048842;28;20562;-55
2022/07/13 08:16:20;;;;;;;3.80;1.80;;;27.90;97.50;;;;;;5056674;28;20431;-56
2022/07/13 08:18:47;;;;;;;3.60;1.70;;;28.00;95.00;;;;;;5048868;28;20491;-53
2022/07/13 08:21:14;;;;;;;2.77;1.90;;;27.90;94.40;;;;;;5057995;28;20452;-50
2022/07/13 08:23:54;;;;;;;2.43;2.03;;;28.00;94.00;;;;;;5058278;28;20536;-47
2022/07/13 08:26:22;;;;;;;4.00;1.73;;;27.80;93.10;;;;;;5057493;28;20485;-45
2022/07/13 08:28:50;;;;;;;3.20;1.80;;;27.60;93.20;;;;;;5058187;28;20462;-47
2022/07/13 08:31:16;;;;;;;1.80;1.70;;;27.30;93.30;;;;;;5050366;28;20412;-48
2022/07/13 08:39:14;;;;;;;2.17;1.83;;;27.90;93.30;;;;;;5051025;28;20458;-57
2022/07/13 08:41:41;;;;;;;2.20;1.73;;;28.60;91.00;;;;;;5058141;28;20515;-49
2022/07/13 08:44:08;;;;;;;1.90;1.67;;;29.50;90.40;;;;;;5058830;28;20515;-50
2022/07/13 08:46:35;;;;;;;2.30;2.00;;;30.70;83.20;;;;;;5058474;28;20428;-46
2022/07/13 08:49:04;;;;;;;2.47;2.20;;;31.80;75.80;;;;;;5058054;28;20448;-45
2022/07/13 08:51:32;;;;;;;4.13;2.10;;;32.20;72.20;;;;;;5057473;28;20468;-46
2022/07/13 08:54:00;;;;;;;1.93;1.70;;;32.00;68.60;;;;;;5058186;28;20436;-53
2022/07/13 08:56:28;;;;;;;1.80;1.53;;;32.00;68.50;;;;;;5056274;28;20544;-48
2022/07/13 08:58:55;;;;;;;2.30;1.80;;;31.70;67.80;;;;;;5058178;28;20512;-53
2022/07/13 09:01:24;;;;;;;2.70;2.03;;;31.40;68.30;;;;;;5057903;28;20496;-47
2022/07/13 09:03:52;;;;;;;2.03;1.67;;;31.20;68.70;;;;;;5057578;28;20454;-48
2022/07/13 09:06:47;;;;;;;3.00;1.60;;;31.10;69.90;;;;;;5057992;28;20444;-48
2022/07/13 09:09:41;;;;;;;2.50;1.83;;;31.30;68.40;;;;;;5057875;28;20524;-47
2022/07/13 09:12:16;;;;;;;4.90;1.93;;;31.60;66.60;;;;;;4999817;28;20448;-48
2022/07/13 09:14:45;;;;;;;2.97;1.90;;;31.80;66.00;;;;;;5051840;28;20471;-56
2022/07/13 09:17:30;;;;;;;2.10;1.90;;;31.90;64.20;;;;;;5056765;28;20470;-48
2022/07/13 09:19:58;;;;;;;2.10;1.50;;;31.90;63.70;;;;;;5056991;28;20523;-52
2022/07/13 09:22:26;;;;;;;2.53;1.53;;;32.20;63.10;;;;;;5057971;28;20673;-50
2022/07/13 09:24:54;;;;;;;2.33;1.70;;;32.60;62.00;;;;;;5057252;28;20460;-56
2022/07/13 09:27:22;;;;;;;1.70;1.60;;;32.60;60.60;;;;;;5057586;28;20440;-48
2022/07/13 09:29:49;;;;;;;2.33;2.00;;;32.60;60.60;;;;;;5057144;28;20475;-52
2022/07/13 09:32:16;;;;;;;2.20;1.80;;;32.50;60.30;;;;;;5056513;28;20432;-48
2022/07/13 09:34:50;;;;;;;2.90;2.03;;;32.20;61.00;;;;;;5056598;28;20828;-51
2022/07/13 09:37:18;;;;;;;2.37;2.00;;;32.00;61.80;;;;;;5055844;28;20478;-46
2022/07/13 09:40:09;;;;;;;2.07;1.90;;;32.00;62.00;;;;;;5056909;28;20440;-52
2022/07/13 09:42:38;;;;;;;2.03;1.70;;;31.50;62.20;;;;;;5057097;28;20493;-56
2022/07/13 09:47:53;;;;;;;2.00;1.80;;;30.60;64.80;;;;;;5046291;28;20432;-54
2022/07/13 09:50:21;;;;;;;3.00;1.97;;;30.00;66.30;;;;;;5055843;28;20464;-52
2022/07/13 09:52:49;;;;;;;2.00;1.63;;;29.70;66.80;;;;;;5056540;28;20502;-47
2022/07/13 09:55:20;;;;;;;3.10;2.80;;;29.60;67.60;;;;;;5056586;28;20502;-54
2022/07/13 09:57:49;;;;;;;1.80;1.60;;;29.90;68.00;;;;;;5056960;28;20452;-45
2022/07/13 10:00:18;;;;;;;2.17;2.00;;;30.10;66.20;;;;;;5055941;28;20472;-50
2022/07/13 10:02:50;;;;;;;5.93;2.00;;;30.30;67.10;;;;;;5053293;28;20478;-49
2022/07/13 10:05:18;;;;;;;3.03;1.90;;;30.60;66.00;;;;;;5055488;28;20436;-48
2022/07/13 10:07:47;;;;;;;2.33;1.80;;;30.60;66.20;;;;;;5048120;28;20425;-51
2022/07/13 10:10:15;;;;;;;1.80;1.70;;;30.50;65.80;;;;;;5055727;28;20451;-51
2022/07/13 10:12:47;;;;;;;2.20;2.00;;;30.50;66.30;;;;;;5056440;28;20439;-51
2022/07/13 10:15:15;;;;;;;2.33;1.57;;;30.40;66.20;;;;;;5055742;28;20435;-43
2022/07/13 10:17:48;;;;;;;2.10;1.70;;;30.20;67.30;;;;;;5056431;28;20487;-46
2022/07/13 10:20:21;;;;;;;1.80;1.70;;;30.20;67.30;;;;;;5055174;28;20462;-48
2022/07/13 10:22:49;;;;;;;1.70;1.60;;;30.60;66.40;;;;;;5055425;28;20436;-47
2022/07/13 10:25:17;;;;;;;2.43;1.50;;;31.10;65.30;;;;;;5055102;28;20455;-45
2022/07/13 10:27:46;;;;;;;2.17;1.70;;;31.50;63.90;;;;;;5056163;28;20467;-53
2022/07/13 10:30:24;;;;;;;2.00;1.80;;;31.40;63.30;;;;;;5056375;28;20475;-50
2022/07/13 10:32:51;;;;;;;2.80;1.70;;;31.40;63.20;;;;;;5048434;28;20432;-54
2022/07/13 10:35:20;;;;;;;2.40;2.20;;;31.80;62.60;;;;;;5055802;28;20487;-52
2022/07/13 10:38:16;;;;;;;1.70;1.60;;;31.70;61.30;;;;;;5046400;28;20468;-46
2022/07/13 10:40:43;;;;;;;2.93;1.57;;;31.50;62.20;;;;;;5056302;28;20440;-48
2022/07/13 10:43:12;;;;;;;1.93;1.73;;;31.50;62.40;;;;;;5055810;28;20455;-54
2022/07/13 10:45:41;;;;;;;4.57;2.50;;;31.60;62.50;;;;;;5056504;28;20467;-45
2022/07/13 10:48:11;;;;;;;2.20;2.00;;;31.60;61.80;;;;;;5056306;28;20429;-47
2022/07/13 10:50:45;;;;;;;2.10;1.90;;;31.80;61.90;;;;;;5054861;28;20515;-54
2022/07/13 10:53:12;;;;;;;2.87;2.37;;;32.00;61.20;;;;;;5055581;28;20420;-51
2022/07/13 10:55:46;;;;;;;3.30;1.90;;;32.00;58.80;;;;;;5055628;28;20424;-50
2022/07/13 10:58:44;;;;;;;2.03;1.60;;;31.70;59.10;;;;;;5055373;28;20503;-46
2022/07/13 11:01:35;;;;;;;1.97;1.70;;;31.30;60.10;;;;;;5055241;28;20451;-50
2022/07/13 11:04:03;;;;;;;2.10;1.90;;;30.80;60.80;;;;;;5055067;28;20487;-53
2022/07/13 11:06:30;;;;;;;2.30;2.10;;;30.60;61.50;;;;;;5052537;28;20468;-53
2022/07/13 11:09:15;;;;;;;2.53;2.03;;;30.50;62.10;;;;;;5055993;28;20436;-51
2022/07/13 11:11:47;;;;;;;2.30;2.10;;;30.00;62.70;;;;;;5051481;28;20478;-54
2022/07/13 11:14:50;;;;;;;2.20;2.00;;;29.70;62.80;;;;;;5054145;28;20460;-43
2022/07/13 11:17:23;;;;;;;3.70;2.17;;;29.30;63.70;;;;;;5055369;28;20543;-44
2022/07/13 11:19:58;;;;;;;2.27;1.70;;;29.00;64.80;;;;;;5056322;28;20412;-52
2022/07/13 11:22:25;;;;;;;6.70;2.27;;;28.80;64.80;;;;;;5055199;28;20924;-50
2022/07/13 11:25:15;;;;;;;2.37;1.83;;;28.80;65.40;;;;;;5055162;28;20448;-49
2022/07/13 11:27:56;;;;;;;1.90;1.80;;;29.00;62.60;;;;;;5055447;28;20544;-52
2022/07/13 11:30:29;;;;;;;1.83;1.60;;;29.10;60.60;;;;;;5055672;28;20429;-50
2022/07/13 11:32:57;;;;;;;2.33;1.70;;;29.20;59.30;;;;;;5055760;28;20459;-48
2022/07/13 11:35:24;;;;;;;2.30;2.03;;;29.30;58.70;;;;;;5055286;28;20444;-47
2022/07/13 11:37:52;;;;;;;2.00;1.70;;;29.40;57.70;;;;;;5043822;28;20519;-48
2022/07/13 11:40:32;;;;;;;2.70;1.93;;;29.40;57.90;;;;;;5055638;28;20464;-48
2022/07/13 11:43:03;;;;;;;1.67;1.47;;;29.30;57.90;;;;;;5054885;28;20463;-50
2022/07/13 11:45:34;;;;;;;4.80;1.90;;;29.00;58.40;;;;;;5054605;28;20440;-46
2022/07/13 11:48:02;;;;;;;2.43;2.23;;;29.00;59.30;;;;;;5054661;28;20472;-53
2022/07/13 11:50:41;;;;;;;2.40;2.20;;;28.80;59.70;;;;;;5055004;28;20425;-47
2022/07/13 11:53:10;;;;;;;2.23;1.90;;;28.70;60.00;;;;;;5054698;28;20474;-48
2022/07/13 11:55:37;;;;;;;2.13;1.77;;;28.80;60.60;;;;;;5053851;28;20435;-48
2022/07/13 11:58:04;;;;;;;3.10;2.53;;;28.80;60.70;;;;;;5053658;28;21002;-57
2022/07/13 12:00:33;;;;;;;2.03;1.83;;;28.90;61.10;;;;;;5042045;28;20444;-51
2022/07/13 12:03:01;;;;;;;2.50;2.27;;;29.00;61.90;;;;;;5054321;28;20499;-51
2022/07/13 12:05:28;;;;;;;2.33;2.00;;;29.10;62.10;;;;;;5053997;28;20691;-53
2022/07/13 12:08:03;;;;;;;3.17;2.50;;;29.00;61.40;;;;;;5054311;28;20543;-50
2022/07/13 12:10:31;;;;;;;2.27;2.07;;;29.00;62.30;;;;;;5055214;28;20435;-49
2022/07/13 12:12:58;;;;;;;2.70;2.50;;;29.00;61.50;;;;;;5055074;28;20494;-50
2022/07/13 12:15:25;;;;;;;2.23;2.03;;;29.00;60.90;;;;;;5055201;28;20480;-52
2022/07/13 12:17:53;;;;;;;2.13;1.90;;;28.90;61.00;;;;;;5054647;28;20520;-48
2022/07/13 12:20:22;;;;;;;2.47;2.10;;;28.80;61.00;;;;;;5054340;28;20463;-52
2022/07/13 12:22:51;;;;;;;1.90;1.70;;;28.70;60.90;;;;;;5056524;28;20467;-43
2022/07/13 12:25:25;;;;;;;2.77;1.70;;;28.70;61.10;;;;;;5058525;28;20428;-51
2022/07/13 12:27:53;;;;;;;3.10;2.47;;;28.80;61.00;;;;;;5057370;28;20467;-47
2022/07/13 12:30:20;;;;;;;3.67;1.80;;;28.80;61.30;;;;;;5058682;28;20483;-45
2022/07/13 12:33:01;;;;;;;2.90;2.03;;;29.00;61.10;;;;;;5058233;28;20468;-53
2022/07/13 12:35:29;;;;;;;2.83;1.70;;;29.10;59.70;;;;;;5058886;28;20460;-51
2022/07/13 12:37:57;;;;;;;3.30;2.60;;;29.30;59.80;;;;;;5058410;28;20472;-50
2022/07/13 12:40:38;;;;;;;3.67;2.40;;;29.40;58.30;;;;;;5049416;28;20474;-56
2022/07/13 12:43:06;;;;;;;2.00;1.80;;;29.60;58.80;;;;;;5046905;28;20474;-52
2022/07/13 12:45:34;;;;;;;10.63;1.97;;;29.60;58.90;;;;;;5058697;28;20424;-46
2022/07/13 12:48:12;;;;;;;3.20;2.20;;;29.70;59.00;;;;;;5057438;28;20456;-54
2022/07/13 12:50:39;;;;;;;4.50;3.03;;;29.70;58.20;;;;;;5058510;28;20479;-51
2022/07/13 12:53:07;;;;;;;2.17;1.97;;;29.60;58.60;;;;;;5058732;28;20492;-46
2022/07/13 12:55:53;;;;;;;2.60;2.27;;;29.50;58.70;;;;;;5056690;28;20508;-48
2022/07/13 12:58:20;;;;;;;2.90;1.87;;;29.40;57.00;;;;;;5048781;28;20527;-49
2022/07/13 13:00:47;;;;;;;1.90;1.70;;;29.40;56.40;;;;;;5057630;28;20455;-49
2022/07/13 13:03:15;;;;;;;2.20;1.50;;;29.30;53.40;;;;;;5057769;28;21055;-44
2022/07/13 13:05:45;;;;;;;1.87;1.57;;;29.20;52.20;;;;;;5057738;28;20456;-48